sensor_id;sensor_type;location;lat;lon;timestamp;temperature;humidity
4505;DHT22;2265;48.794;9.520;2023-03-01T00:00:10;0.20;98.00
4505;DHT22;2265;48.794;9.520;2023-03-01T00:02:37;0.30;98.00
4505;DHT22;2265;48.794;9.520;2023-03-01T00:05:05;0.30;98.00
4505;DHT22;2265;48.794;9.520;2023-03-01T00:07:34;0.30;98.00
4505;DHT22;2265;48.794;9.520;2023-03-01T00:10:01;0.20;98.00
4505;DHT22;2265;48.794;9.520;2023-03-01T00:12:29;0.10;98.00
4505;DHT22;2265;48.794;9.520;2023-03-01T00:14:57;-0.10;98.00
4505;DHT22;2265;48.794;9.520;2023-03-01T00:17:24;-0.40;98.00
4505;DHT22;2265;48.794;9.520;2023-03-01T00:19:51;-0.50;98.00
4505;DHT22;2265;48.794;9.520;2023-03-01T00:22:18;-0.50;98.00
4505;DHT22;2265;48.794;9.520;2023-03-01T00:24:47;-0.40;98.00
4505;DHT22;2265;48.794;9.520;2023-03-01T00:27:14;-0.50;98.00
4505;DHT22;2265;48.794;9.520;2023-03-01T00:29:41;-0.50;98.00
4505;DHT22;2265;48.794;9.520;2023-03-01T00:32:08;-0.40;98.00
4505;DHT22;2265;48.794;9.520;2023-03-01T00:34:35;-0.40;98.00
4505;DHT22;2265;48.794;9.520;2023-03-01T00:37:02;-0.30;98.00
4505;DHT22;2265;48.794;9.520;2023-03-01T00:39:31;-0.30;98.00
4505;DHT22;2265;48.794;9.520;2023-03-01T00:42:00;-0.50;98.00
4505;DHT22;2265;48.794;9.520;2023-03-01T00:44:27;-0.60;98.00
4505;DHT22;2265;48.794;9.520;2023-03-01T00:46:54;-0.60;98.00
4505;DHT22;2265;48.794;9.520;2023-03-01T00:49:22;-0.50;98.00
4505;DHT22;2265;48.794;9.520;2023-03-01T00:51:53;-0.60;98.00
4505;DHT22;2265;48.794;9.520;2023-03-01T00:54:20;-0.50;98.00
4505;DHT22;2265;48.794;9.520;2023-03-01T00:56:47;-0.60;98.00
4505;DHT22;2265;48.794;9.520;2023-03-01T00:59:15;-0.80;98.00
4505;DHT22;2265;48.794;9.520;2023-03-01T01:01:43;-0.90;98.00
4505;DHT22;2265;48.794;9.520;2023-03-01T01:04:11;-0.90;98.00
4505;DHT22;2265;48.794;9.520;2023-03-01T01:06:40;-1.00;98.00
4505;DHT22;2265;48.794;9.520;2023-03-01T01:09:09;-1.00;98.00
4505;DHT22;2265;48.794;9.520;2023-03-01T01:11:44;-1.00;98.00
4505;DHT22;2265;48.794;9.520;2023-03-01T01:14:11;-1.10;98.00
4505;DHT22;2265;48.794;9.520;2023-03-01T01:16:41;-1.00;98.00
4505;DHT22;2265;48.794;9.520;2023-03-01T01:19:09;-0.90;98.00
4505;DHT22;2265;48.794;9.520;2023-03-01T01:21:37;-0.80;98.00
4505;DHT22;2265;48.794;9.520;2023-03-01T01:24:06;-0.90;98.00
4505;DHT22;2265;48.794;9.520;2023-03-01T01:26:33;-0.90;98.00
4505;DHT22;2265;48.794;9.520;2023-03-01T01:29:03;-0.80;98.00
4505;DHT22;2265;48.794;9.520;2023-03-01T01:31:31;-0.80;98.00
4505;DHT22;2265;48.794;9.520;2023-03-01T01:34:01;-0.90;98.00
4505;DHT22;2265;48.794;9.520;2023-03-01T01:36:28;-0.80;98.00
4505;DHT22;2265;48.794;9.520;2023-03-01T01:38:56;-0.70;98.00
4505;DHT22;2265;48.794;9.520;2023-03-01T01:41:24;-0.70;98.00
4505;DHT22;2265;48.794;9.520;2023-03-01T01:44:11;-0.70;98.00
4505;DHT22;2265;48.794;9.520;2023-03-01T01:46:41;-0.60;98.00
4505;DHT22;2265;48.794;9.520;2023-03-01T01:49:17;-0.50;98.00
4505;DHT22;2265;48.794;9.520;2023-03-01T01:51:49;-0.50;98.00
4505;DHT22;2265;48.794;9.520;2023-03-01T01:54:21;-0.40;98.00
4505;DHT22;2265;48.794;9.520;2023-03-01T01:56:54;-0.40;98.00
4505;DHT22;2265;48.794;9.520;2023-03-01T01:59:23;-0.40;98.00
4505;DHT22;2265;48.794;9.520;2023-03-01T02:01:53;-0.20;98.00
4505;DHT22;2265;48.794;9.520;2023-03-01T02:04:22;0.10;98.00
4505;DHT22;2265;48.794;9.520;2023-03-01T02:06:54;0.00;98.00
4505;DHT22;2265;48.794;9.520;2023-03-01T02:09:23;-0.10;98.00
4505;DHT22;2265;48.794;9.520;2023-03-01T02:11:51;-0.10;98.00
4505;DHT22;2265;48.794;9.520;2023-03-01T02:14:18;-0.10;98.00
4505;DHT22;2265;48.794;9.520;2023-03-01T02:16:45;0.00;98.00
4505;DHT22;2265;48.794;9.520;2023-03-01T02:19:23;-0.10;98.00
4505;DHT22;2265;48.794;9.520;2023-03-01T02:22:00;0.20;98.00
4505;DHT22;2265;48.794;9.520;2023-03-01T02:24:36;0.40;98.00
4505;DHT22;2265;48.794;9.520;2023-03-01T02:27:09;0.50;98.00
4505;DHT22;2265;48.794;9.520;2023-03-01T02:29:38;0.60;98.00
4505;DHT22;2265;48.794;9.520;2023-03-01T02:32:06;0.70;98.00
4505;DHT22;2265;48.794;9.520;2023-03-01T02:34:33;0.60;98.00
4505;DHT22;2265;48.794;9.520;2023-03-01T02:37:02;0.50;98.00
4505;DHT22;2265;48.794;9.520;2023-03-01T02:39:37;0.50;98.00
4505;DHT22;2265;48.794;9.520;2023-03-01T02:42:11;0.50;98.00
4505;DHT22;2265;48.794;9.520;2023-03-01T02:44:40;0.60;98.00
4505;DHT22;2265;48.794;9.520;2023-03-01T02:47:08;0.60;98.00
4505;DHT22;2265;48.794;9.520;2023-03-01T02:49:36;0.60;98.00
4505;DHT22;2265;48.794;9.520;2023-03-01T02:52:17;0.60;98.00
4505;DHT22;2265;48.794;9.520;2023-03-01T02:54:52;0.60;98.00
4505;DHT22;2265;48.794;9.520;2023-03-01T02:57:23;0.60;98.00
4505;DHT22;2265;48.794;9.520;2023-03-01T02:59:54;0.70;98.00
4505;DHT22;2265;48.794;9.520;2023-03-01T03:02:25;0.60;98.00
4505;DHT22;2265;48.794;9.520;2023-03-01T03:05:09;0.70;98.00
4505;DHT22;2265;48.794;9.520;2023-03-01T03:07:38;0.70;98.00
4505;DHT22;2265;48.794;9.520;2023-03-01T03:10:07;0.70;98.00
4505;DHT22;2265;48.794;9.520;2023-03-01T03:12:38;0.80;98.00
4505;DHT22;2265;48.794;9.520;2023-03-01T03:15:09;0.80;98.00
4505;DHT22;2265;48.794;9.520;2023-03-01T03:17:40;0.80;98.00
4505;DHT22;2265;48.794;9.520;2023-03-01T03:20:10;0.80;98.00
4505;DHT22;2265;48.794;9.520;2023-03-01T03:22:38;0.90;98.00
4505;DHT22;2265;48.794;9.520;2023-03-01T03:25:06;0.90;98.00
4505;DHT22;2265;48.794;9.520;2023-03-01T03:27:39;0.90;98.00
4505;DHT22;2265;48.794;9.520;2023-03-01T03:30:10;0.90;98.00
4505;DHT22;2265;48.794;9.520;2023-03-01T03:32:38;1.00;98.00
4505;DHT22;2265;48.794;9.520;2023-03-01T03:35:27;1.00;98.00
4505;DHT22;2265;48.794;9.520;2023-03-01T03:37:59;1.00;98.00
4505;DHT22;2265;48.794;9.520;2023-03-01T03:40:32;1.00;98.00
4505;DHT22;2265;48.794;9.520;2023-03-01T03:43:00;1.00;98.00
4505;DHT22;2265;48.794;9.520;2023-03-01T03:45:29;1.00;98.00
4505;DHT22;2265;48.794;9.520;2023-03-01T03:48:00;1.00;98.00
4505;DHT22;2265;48.794;9.520;2023-03-01T03:50:27;1.00;98.00
4505;DHT22;2265;48.794;9.520;2023-03-01T03:52:54;1.10;98.00
4505;DHT22;2265;48.794;9.520;2023-03-01T03:55:21;1.10;98.00
4505;DHT22;2265;48.794;9.520;2023-03-01T03:57:49;1.00;98.00
4505;DHT22;2265;48.794;9.520;2023-03-01T04:00:18;1.10;98.00
4505;DHT22;2265;48.794;9.520;2023-03-01T04:02:48;1.10;98.00
4505;DHT22;2265;48.794;9.520;2023-03-01T04:05:17;1.10;98.00
4505;DHT22;2265;48.794;9.520;2023-03-01T04:07:45;1.10;98.00
4505;DHT22;2265;48.794;9.520;2023-03-01T04:10:14;1.10;98.00
4505;DHT22;2265;48.794;9.520;2023-03-01T04:12:42;1.20;98.00
4505;DHT22;2265;48.794;9.520;2023-03-01T04:15:11;1.20;98.00
4505;DHT22;2265;48.794;9.520;2023-03-01T04:17:41;1.20;98.00
4505;DHT22;2265;48.794;9.520;2023-03-01T04:20:13;1.30;98.00
4505;DHT22;2265;48.794;9.520;2023-03-01T04:22:44;1.30;98.00
4505;DHT22;2265;48.794;9.520;2023-03-01T04:25:12;1.50;98.00
4505;DHT22;2265;48.794;9.520;2023-03-01T04:27:40;1.40;98.00
4505;DHT22;2265;48.794;9.520;2023-03-01T04:30:09;1.40;98.00
4505;DHT22;2265;48.794;9.520;2023-03-01T04:32:36;1.30;98.00
4505;DHT22;2265;48.794;9.520;2023-03-01T04:35:04;1.40;98.00
4505;DHT22;2265;48.794;9.520;2023-03-01T04:37:33;1.40;98.00
4505;DHT22;2265;48.794;9.520;2023-03-01T04:40:02;1.30;98.00
4505;DHT22;2265;48.794;9.520;2023-03-01T04:42:38;1.30;98.00
4505;DHT22;2265;48.794;9.520;2023-03-01T04:45:07;1.20;98.00
4505;DHT22;2265;48.794;9.520;2023-03-01T04:47:39;1.20;98.00
4505;DHT22;2265;48.794;9.520;2023-03-01T04:50:07;1.20;98.00
4505;DHT22;2265;48.794;9.520;2023-03-01T04:52:36;1.20;98.00
4505;DHT22;2265;48.794;9.520;2023-03-01T04:55:04;1.30;98.00
4505;DHT22;2265;48.794;9.520;2023-03-01T04:57:31;1.20;98.00
4505;DHT22;2265;48.794;9.520;2023-03-01T04:59:59;1.20;98.00
4505;DHT22;2265;48.794;9.520;2023-03-01T05:02:26;1.20;98.00
4505;DHT22;2265;48.794;9.520;2023-03-01T05:04:53;1.30;98.00
4505;DHT22;2265;48.794;9.520;2023-03-01T05:07:23;1.20;98.00
4505;DHT22;2265;48.794;9.520;2023-03-01T05:09:53;1.30;98.00
4505;DHT22;2265;48.794;9.520;2023-03-01T05:12:20;1.30;98.00
4505;DHT22;2265;48.794;9.520;2023-03-01T05:14:47;1.40;98.00
4505;DHT22;2265;48.794;9.520;2023-03-01T05:17:14;1.50;98.00
4505;DHT22;2265;48.794;9.520;2023-03-01T05:19:41;1.50;98.00
4505;DHT22;2265;48.794;9.520;2023-03-01T05:22:09;1.60;98.00
4505;DHT22;2265;48.794;9.520;2023-03-01T05:24:36;1.70;98.00
4505;DHT22;2265;48.794;9.520;2023-03-01T05:27:05;1.70;98.00
4505;DHT22;2265;48.794;9.520;2023-03-01T05:29:33;1.70;98.00
4505;DHT22;2265;48.794;9.520;2023-03-01T05:32:01;1.80;98.00
4505;DHT22;2265;48.794;9.520;2023-03-01T05:34:31;1.80;98.00
4505;DHT22;2265;48.794;9.520;2023-03-01T05:36:59;1.70;98.00
4505;DHT22;2265;48.794;9.520;2023-03-01T05:39:27;1.70;98.00
4505;DHT22;2265;48.794;9.520;2023-03-01T05:41:56;1.60;98.00
4505;DHT22;2265;48.794;9.520;2023-03-01T05:44:25;1.60;98.00
4505;DHT22;2265;48.794;9.520;2023-03-01T05:46:52;1.70;98.00
4505;DHT22;2265;48.794;9.520;2023-03-01T05:49:19;1.60;98.00
4505;DHT22;2265;48.794;9.520;2023-03-01T05:51:51;1.60;98.00
4505;DHT22;2265;48.794;9.520;2023-03-01T05:54:20;1.70;98.00
4505;DHT22;2265;48.794;9.520;2023-03-01T05:56:48;1.80;98.00
4505;DHT22;2265;48.794;9.520;2023-03-01T05:59:15;2.00;98.00
4505;DHT22;2265;48.794;9.520;2023-03-01T06:01:46;2.00;98.00
4505;DHT22;2265;48.794;9.520;2023-03-01T06:04:17;2.00;98.00
4505;DHT22;2265;48.794;9.520;2023-03-01T06:06:44;1.90;98.00
4505;DHT22;2265;48.794;9.520;2023-03-01T06:09:12;1.90;98.00
4505;DHT22;2265;48.794;9.520;2023-03-01T06:11:39;1.70;98.00
4505;DHT22;2265;48.794;9.520;2023-03-01T06:14:08;1.60;98.00
4505;DHT22;2265;48.794;9.520;2023-03-01T06:16:36;1.50;98.00
4505;DHT22;2265;48.794;9.520;2023-03-01T06:19:06;1.50;98.00
4505;DHT22;2265;48.794;9.520;2023-03-01T06:21:33;1.50;98.00
4505;DHT22;2265;48.794;9.520;2023-03-01T06:24:00;1.40;98.00
4505;DHT22;2265;48.794;9.520;2023-03-01T06:26:27;1.30;98.00
4505;DHT22;2265;48.794;9.520;2023-03-01T06:28:54;1.30;98.00
4505;DHT22;2265;48.794;9.520;2023-03-01T06:31:21;1.20;98.00
4505;DHT22;2265;48.794;9.520;2023-03-01T06:33:48;1.20;98.00
4505;DHT22;2265;48.794;9.520;2023-03-01T06:36:16;1.10;98.00
4505;DHT22;2265;48.794;9.520;2023-03-01T06:38:46;1.20;98.00
4505;DHT22;2265;48.794;9.520;2023-03-01T06:41:13;1.10;98.00
4505;DHT22;2265;48.794;9.520;2023-03-01T06:43:40;1.10;98.00
4505;DHT22;2265;48.794;9.520;2023-03-01T06:46:07;1.10;98.00
4505;DHT22;2265;48.794;9.520;2023-03-01T06:48:35;1.00;98.00
4505;DHT22;2265;48.794;9.520;2023-03-01T06:51:02;1.00;98.00
4505;DHT22;2265;48.794;9.520;2023-03-01T06:53:30;1.10;98.00
4505;DHT22;2265;48.794;9.520;2023-03-01T06:55:58;1.10;98.00
4505;DHT22;2265;48.794;9.520;2023-03-01T06:58:26;1.20;98.00
4505;DHT22;2265;48.794;9.520;2023-03-01T07:00:54;1.20;98.00
4505;DHT22;2265;48.794;9.520;2023-03-01T07:03:21;1.10;98.00
4505;DHT22;2265;48.794;9.520;2023-03-01T07:05:48;1.20;98.00
4505;DHT22;2265;48.794;9.520;2023-03-01T07:08:17;1.30;98.00
4505;DHT22;2265;48.794;9.520;2023-03-01T07:10:45;1.40;98.00
4505;DHT22;2265;48.794;9.520;2023-03-01T07:13:13;1.50;98.00
4505;DHT22;2265;48.794;9.520;2023-03-01T07:15:52;1.60;98.00
4505;DHT22;2265;48.794;9.520;2023-03-01T07:18:19;1.60;98.00
4505;DHT22;2265;48.794;9.520;2023-03-01T07:20:48;1.60;98.00
4505;DHT22;2265;48.794;9.520;2023-03-01T07:23:16;1.50;98.00
4505;DHT22;2265;48.794;9.520;2023-03-01T07:25:51;1.70;98.00
4505;DHT22;2265;48.794;9.520;2023-03-01T07:28:18;1.70;98.00
4505;DHT22;2265;48.794;9.520;2023-03-01T07:30:45;1.70;98.00
4505;DHT22;2265;48.794;9.520;2023-03-01T07:33:14;1.80;98.00
4505;DHT22;2265;48.794;9.520;2023-03-01T07:35:41;1.80;98.00
4505;DHT22;2265;48.794;9.520;2023-03-01T07:38:08;1.80;98.00
4505;DHT22;2265;48.794;9.520;2023-03-01T07:40:36;1.80;98.00
4505;DHT22;2265;48.794;9.520;2023-03-01T07:43:04;1.80;98.00
4505;DHT22;2265;48.794;9.520;2023-03-01T07:45:31;1.80;98.00
4505;DHT22;2265;48.794;9.520;2023-03-01T07:47:58;1.80;98.00
4505;DHT22;2265;48.794;9.520;2023-03-01T07:50:26;1.90;98.00
4505;DHT22;2265;48.794;9.520;2023-03-01T07:52:53;1.90;98.00
4505;DHT22;2265;48.794;9.520;2023-03-01T07:55:19;1.80;98.00
4505;DHT22;2265;48.794;9.520;2023-03-01T07:57:46;1.80;98.00
4505;DHT22;2265;48.794;9.520;2023-03-01T08:00:16;1.80;98.00
4505;DHT22;2265;48.794;9.520;2023-03-01T08:02:44;1.80;98.00
4505;DHT22;2265;48.794;9.520;2023-03-01T08:05:11;1.80;98.00
4505;DHT22;2265;48.794;9.520;2023-03-01T08:07:38;1.90;98.00
4505;DHT22;2265;48.794;9.520;2023-03-01T08:10:06;2.00;98.00
4505;DHT22;2265;48.794;9.520;2023-03-01T08:12:33;1.90;98.00
4505;DHT22;2265;48.794;9.520;2023-03-01T08:15:00;2.00;98.00
4505;DHT22;2265;48.794;9.520;2023-03-01T08:17:28;2.00;98.00
4505;DHT22;2265;48.794;9.520;2023-03-01T08:19:55;2.00;98.00
4505;DHT22;2265;48.794;9.520;2023-03-01T08:22:22;2.10;98.00
4505;DHT22;2265;48.794;9.520;2023-03-01T08:24:51;2.30;98.00
4505;DHT22;2265;48.794;9.520;2023-03-01T08:27:18;2.40;98.00
4505;DHT22;2265;48.794;9.520;2023-03-01T08:29:45;2.50;98.00
4505;DHT22;2265;48.794;9.520;2023-03-01T08:32:12;2.50;98.00
4505;DHT22;2265;48.794;9.520;2023-03-01T08:34:40;2.50;98.00
4505;DHT22;2265;48.794;9.520;2023-03-01T08:37:07;2.60;98.00
4505;DHT22;2265;48.794;9.520;2023-03-01T08:39:36;2.60;98.00
4505;DHT22;2265;48.794;9.520;2023-03-01T08:42:04;2.80;98.00
4505;DHT22;2265;48.794;9.520;2023-03-01T08:44:31;2.90;98.00
4505;DHT22;2265;48.794;9.520;2023-03-01T08:46:59;3.00;98.00
4505;DHT22;2265;48.794;9.520;2023-03-01T08:49:27;3.20;98.00
4505;DHT22;2265;48.794;9.520;2023-03-01T08:51:56;3.20;98.00
4505;DHT22;2265;48.794;9.520;2023-03-01T08:54:23;3.30;98.00
4505;DHT22;2265;48.794;9.520;2023-03-01T08:56:50;3.50;98.00
4505;DHT22;2265;48.794;9.520;2023-03-01T08:59:18;3.80;98.00
4505;DHT22;2265;48.794;9.520;2023-03-01T09:01:45;3.90;98.00
4505;DHT22;2265;48.794;9.520;2023-03-01T09:04:12;3.90;98.00
4505;DHT22;2265;48.794;9.520;2023-03-01T09:06:40;4.10;98.00
4505;DHT22;2265;48.794;9.520;2023-03-01T09:09:13;4.20;98.00
4505;DHT22;2265;48.794;9.520;2023-03-01T09:11:41;4.20;98.00
4505;DHT22;2265;48.794;9.520;2023-03-01T09:14:10;4.30;98.00
4505;DHT22;2265;48.794;9.520;2023-03-01T09:16:38;4.40;98.00
4505;DHT22;2265;48.794;9.520;2023-03-01T09:19:05;4.50;98.00
4505;DHT22;2265;48.794;9.520;2023-03-01T09:21:32;4.60;98.00
4505;DHT22;2265;48.794;9.520;2023-03-01T09:23:59;4.70;98.00
4505;DHT22;2265;48.794;9.520;2023-03-01T09:26:28;4.90;98.00
4505;DHT22;2265;48.794;9.520;2023-03-01T09:28:56;5.10;98.00
4505;DHT22;2265;48.794;9.520;2023-03-01T09:31:24;5.10;98.00
4505;DHT22;2265;48.794;9.520;2023-03-01T09:33:53;5.10;98.00
4505;DHT22;2265;48.794;9.520;2023-03-01T09:36:22;5.20;98.00
4505;DHT22;2265;48.794;9.520;2023-03-01T09:38:51;5.30;98.00
4505;DHT22;2265;48.794;9.520;2023-03-01T09:41:53;5.30;98.00
4505;DHT22;2265;48.794;9.520;2023-03-01T09:44:32;5.50;98.00
4505;DHT22;2265;48.794;9.520;2023-03-01T09:47:03;5.70;98.00
4505;DHT22;2265;48.794;9.520;2023-03-01T09:49:33;5.90;98.00
4505;DHT22;2265;48.794;9.520;2023-03-01T09:52:12;6.00;98.00
4505;DHT22;2265;48.794;9.520;2023-03-01T09:54:44;6.10;98.00
4505;DHT22;2265;48.794;9.520;2023-03-01T09:57:18;6.40;98.00
4505;DHT22;2265;48.794;9.520;2023-03-01T10:00:09;6.50;98.00
4505;DHT22;2265;48.794;9.520;2023-03-01T10:02:41;6.70;98.00
4505;DHT22;2265;48.794;9.520;2023-03-01T10:05:28;7.00;98.00
4505;DHT22;2265;48.794;9.520;2023-03-01T10:08:06;7.10;97.40
4505;DHT22;2265;48.794;9.520;2023-03-01T10:10:44;7.30;97.10
4505;DHT22;2265;48.794;9.520;2023-03-01T10:13:19;7.50;95.90
4505;DHT22;2265;48.794;9.520;2023-03-01T10:15:50;7.60;96.20
4505;DHT22;2265;48.794;9.520;2023-03-01T10:18:22;7.40;95.90
4505;DHT22;2265;48.794;9.520;2023-03-01T10:20:53;7.60;96.00
4505;DHT22;2265;48.794;9.520;2023-03-01T10:23:22;7.70;95.60
4505;DHT22;2265;48.794;9.520;2023-03-01T10:26:09;7.80;95.10
4505;DHT22;2265;48.794;9.520;2023-03-01T10:28:47;7.80;94.50
4505;DHT22;2265;48.794;9.520;2023-03-01T10:31:20;7.90;94.30
4505;DHT22;2265;48.794;9.520;2023-03-01T10:33:48;8.10;94.70
4505;DHT22;2265;48.794;9.520;2023-03-01T10:36:20;8.10;94.00
4505;DHT22;2265;48.794;9.520;2023-03-01T10:38:48;8.30;94.20
4505;DHT22;2265;48.794;9.520;2023-03-01T10:41:18;8.20;92.80
4505;DHT22;2265;48.794;9.520;2023-03-01T10:43:49;8.30;94.20
4505;DHT22;2265;48.794;9.520;2023-03-01T10:46:23;8.60;93.80
4505;DHT22;2265;48.794;9.520;2023-03-01T10:49:06;8.70;93.00
4505;DHT22;2265;48.794;9.520;2023-03-01T10:51:34;8.90;93.00
4505;DHT22;2265;48.794;9.520;2023-03-01T10:54:01;9.00;92.70
4505;DHT22;2265;48.794;9.520;2023-03-01T10:56:46;9.20;92.60
4505;DHT22;2265;48.794;9.520;2023-03-01T10:59:25;9.30;91.30
4505;DHT22;2265;48.794;9.520;2023-03-01T11:02:14;9.40;90.90
4505;DHT22;2265;48.794;9.520;2023-03-01T11:04:57;9.40;90.70
4505;DHT22;2265;48.794;9.520;2023-03-01T11:07:24;9.60;91.20
4505;DHT22;2265;48.794;9.520;2023-03-01T11:09:53;9.80;90.30
4505;DHT22;2265;48.794;9.520;2023-03-01T11:12:20;9.90;89.40
4505;DHT22;2265;48.794;9.520;2023-03-01T11:14:52;9.90;88.80
4505;DHT22;2265;48.794;9.520;2023-03-01T11:17:24;10.00;88.70
4505;DHT22;2265;48.794;9.520;2023-03-01T11:20:02;10.10;88.70
4505;DHT22;2265;48.794;9.520;2023-03-01T11:22:33;10.20;89.00
4505;DHT22;2265;48.794;9.520;2023-03-01T11:25:02;10.50;88.90
4505;DHT22;2265;48.794;9.520;2023-03-01T11:27:32;10.70;88.20
4505;DHT22;2265;48.794;9.520;2023-03-01T11:30:04;10.80;86.90
4505;DHT22;2265;48.794;9.520;2023-03-01T11:32:35;11.00;87.50
4505;DHT22;2265;48.794;9.520;2023-03-01T11:35:10;11.00;86.60
4505;DHT22;2265;48.794;9.520;2023-03-01T11:37:45;10.90;86.20
4505;DHT22;2265;48.794;9.520;2023-03-01T11:40:24;11.10;86.10
4505;DHT22;2265;48.794;9.520;2023-03-01T11:43:02;11.40;85.80
4505;DHT22;2265;48.794;9.520;2023-03-01T11:45:41;11.60;85.70
4505;DHT22;2265;48.794;9.520;2023-03-01T11:48:29;11.80;85.10
4505;DHT22;2265;48.794;9.520;2023-03-01T11:51:03;12.20;85.30
4505;DHT22;2265;48.794;9.520;2023-03-01T11:53:47;12.20;84.70
4505;DHT22;2265;48.794;9.520;2023-03-01T11:56:28;12.30;83.60
4505;DHT22;2265;48.794;9.520;2023-03-01T11:59:12;12.40;84.30
4505;DHT22;2265;48.794;9.520;2023-03-01T12:02:12;12.70;84.30
4505;DHT22;2265;48.794;9.520;2023-03-01T12:07:40;12.80;82.50
4505;DHT22;2265;48.794;9.520;2023-03-01T12:10:25;12.90;83.30
4505;DHT22;2265;48.794;9.520;2023-03-01T12:13:04;12.80;81.80
4505;DHT22;2265;48.794;9.520;2023-03-01T12:19:12;13.00;82.70
4505;DHT22;2265;48.794;9.520;2023-03-01T12:21:57;13.40;82.00
4505;DHT22;2265;48.794;9.520;2023-03-01T12:24:58;13.40;81.40
4505;DHT22;2265;48.794;9.520;2023-03-01T12:30:39;13.30;82.10
4505;DHT22;2265;48.794;9.520;2023-03-01T12:33:20;13.30;81.50
4505;DHT22;2265;48.794;9.520;2023-03-01T12:36:18;13.40;81.60
4505;DHT22;2265;48.794;9.520;2023-03-01T12:38:59;13.50;81.40
4505;DHT22;2265;48.794;9.520;2023-03-01T12:41:41;13.70;81.60
4505;DHT22;2265;48.794;9.520;2023-03-01T12:44:22;13.90;80.20
4505;DHT22;2265;48.794;9.520;2023-03-01T12:47:15;14.00;80.40
4505;DHT22;2265;48.794;9.520;2023-03-01T12:49:51;14.10;79.60
4505;DHT22;2265;48.794;9.520;2023-03-01T12:52:24;14.10;79.40
4505;DHT22;2265;48.794;9.520;2023-03-01T12:54:57;14.10;79.20
4505;DHT22;2265;48.794;9.520;2023-03-01T12:57:30;14.10;79.90
4505;DHT22;2265;48.794;9.520;2023-03-01T13:00:17;14.20;79.40
4505;DHT22;2265;48.794;9.520;2023-03-01T13:02:53;14.30;79.60
4505;DHT22;2265;48.794;9.520;2023-03-01T13:05:34;14.40;78.50
4505;DHT22;2265;48.794;9.520;2023-03-01T13:08:13;14.50;78.30
4505;DHT22;2265;48.794;9.520;2023-03-01T13:10:46;14.50;78.70
4505;DHT22;2265;48.794;9.520;2023-03-01T13:13:20;14.50;78.50
4505;DHT22;2265;48.794;9.520;2023-03-01T13:15:47;14.60;78.50
4505;DHT22;2265;48.794;9.520;2023-03-01T13:18:31;14.70;77.40
4505;DHT22;2265;48.794;9.520;2023-03-01T13:21:00;14.90;77.50
4505;DHT22;2265;48.794;9.520;2023-03-01T13:23:34;15.10;78.00
4505;DHT22;2265;48.794;9.520;2023-03-01T13:26:10;15.10;77.00
4505;DHT22;2265;48.794;9.520;2023-03-01T13:28:47;15.10;76.30
4505;DHT22;2265;48.794;9.520;2023-03-01T13:34:56;15.10;77.00
4505;DHT22;2265;48.794;9.520;2023-03-01T13:37:29;15.20;76.30
4505;DHT22;2265;48.794;9.520;2023-03-01T13:40:04;15.30;76.60
4505;DHT22;2265;48.794;9.520;2023-03-01T13:42:38;15.50;76.50
4505;DHT22;2265;48.794;9.520;2023-03-01T13:45:18;15.40;75.80
4505;DHT22;2265;48.794;9.520;2023-03-01T13:47:47;15.50;76.30
4505;DHT22;2265;48.794;9.520;2023-03-01T13:50:19;15.30;76.30
4505;DHT22;2265;48.794;9.520;2023-03-01T13:52:50;15.30;76.30
4505;DHT22;2265;48.794;9.520;2023-03-01T13:55:34;15.10;76.40
4505;DHT22;2265;48.794;9.520;2023-03-01T13:58:14;15.00;77.00
4505;DHT22;2265;48.794;9.520;2023-03-01T14:00:41;15.10;76.80
4505;DHT22;2265;48.794;9.520;2023-03-01T14:03:13;15.00;76.40
4505;DHT22;2265;48.794;9.520;2023-03-01T14:05:42;14.90;77.70
4505;DHT22;2265;48.794;9.520;2023-03-01T14:08:22;14.80;77.00
4505;DHT22;2265;48.794;9.520;2023-03-01T14:13:58;14.40;77.80
4505;DHT22;2265;48.794;9.520;2023-03-01T14:16:35;14.40;78.20
4505;DHT22;2265;48.794;9.520;2023-03-01T14:19:14;14.50;77.30
4505;DHT22;2265;48.794;9.520;2023-03-01T14:21:42;14.40;77.40
4505;DHT22;2265;48.794;9.520;2023-03-01T14:24:18;14.50;77.80
4505;DHT22;2265;48.794;9.520;2023-03-01T14:26:49;14.60;77.70
4505;DHT22;2265;48.794;9.520;2023-03-01T14:29:28;14.70;77.40
4505;DHT22;2265;48.794;9.520;2023-03-01T14:32:17;14.70;77.70
4505;DHT22;2265;48.794;9.520;2023-03-01T14:34:47;14.80;77.20
4505;DHT22;2265;48.794;9.520;2023-03-01T14:37:19;14.70;76.40
4505;DHT22;2265;48.794;9.520;2023-03-01T14:39:47;14.70;77.40
4505;DHT22;2265;48.794;9.520;2023-03-01T14:42:16;14.80;77.20
4505;DHT22;2265;48.794;9.520;2023-03-01T14:44:46;14.90;77.10
4505;DHT22;2265;48.794;9.520;2023-03-01T14:47:16;15.20;76.80
4505;DHT22;2265;48.794;9.520;2023-03-01T14:49:50;15.30;75.70
4505;DHT22;2265;48.794;9.520;2023-03-01T14:52:22;15.30;75.80
4505;DHT22;2265;48.794;9.520;2023-03-01T14:54:53;15.20;76.00
4505;DHT22;2265;48.794;9.520;2023-03-01T14:57:24;15.30;76.30
4505;DHT22;2265;48.794;9.520;2023-03-01T14:59:53;15.50;75.40
4505;DHT22;2265;48.794;9.520;2023-03-01T15:02:23;15.60;74.90
4505;DHT22;2265;48.794;9.520;2023-03-01T15:04:52;15.50;75.10
4505;DHT22;2265;48.794;9.520;2023-03-01T15:07:23;15.10;75.50
4505;DHT22;2265;48.794;9.520;2023-03-01T15:09:52;15.30;75.70
4505;DHT22;2265;48.794;9.520;2023-03-01T15:12:35;15.50;75.10
4505;DHT22;2265;48.794;9.520;2023-03-01T15:18:05;15.70;74.40
4505;DHT22;2265;48.794;9.520;2023-03-01T15:20:35;15.60;74.50
4505;DHT22;2265;48.794;9.520;2023-03-01T15:23:03;15.50;74.90
4505;DHT22;2265;48.794;9.520;2023-03-01T15:25:32;15.50;75.10
4505;DHT22;2265;48.794;9.520;2023-03-01T15:28:02;15.50;75.10
4505;DHT22;2265;48.794;9.520;2023-03-01T15:30:31;15.40;74.40
4505;DHT22;2265;48.794;9.520;2023-03-01T15:35:47;15.50;75.20
4505;DHT22;2265;48.794;9.520;2023-03-01T15:38:27;15.60;74.70
4505;DHT22;2265;48.794;9.520;2023-03-01T15:40:54;15.70;78.30
4505;DHT22;2265;48.794;9.520;2023-03-01T15:43:45;16.40;80.40
4505;DHT22;2265;48.794;9.520;2023-03-01T15:46:18;16.60;73.30
4505;DHT22;2265;48.794;9.520;2023-03-01T15:48:47;16.60;72.70
4505;DHT22;2265;48.794;9.520;2023-03-01T15:51:22;16.50;72.50
4505;DHT22;2265;48.794;9.520;2023-03-01T15:53:51;16.50;73.10
4505;DHT22;2265;48.794;9.520;2023-03-01T15:56:19;16.20;72.50
4505;DHT22;2265;48.794;9.520;2023-03-01T15:58:47;15.90;73.70
4505;DHT22;2265;48.794;9.520;2023-03-01T16:01:16;15.90;73.90
4505;DHT22;2265;48.794;9.520;2023-03-01T16:03:43;15.80;73.70
4505;DHT22;2265;48.794;9.520;2023-03-01T16:06:11;15.60;74.20
4505;DHT22;2265;48.794;9.520;2023-03-01T16:08:39;15.70;74.30
4505;DHT22;2265;48.794;9.520;2023-03-01T16:11:14;15.80;73.90
4505;DHT22;2265;48.794;9.520;2023-03-01T16:13:43;15.70;74.00
4505;DHT22;2265;48.794;9.520;2023-03-01T16:16:14;15.50;74.10
4505;DHT22;2265;48.794;9.520;2023-03-01T16:18:43;15.20;74.10
4505;DHT22;2265;48.794;9.520;2023-03-01T16:21:22;15.20;74.90
4505;DHT22;2265;48.794;9.520;2023-03-01T16:23:57;15.00;74.60
4505;DHT22;2265;48.794;9.520;2023-03-01T16:26:24;14.50;75.20
4505;DHT22;2265;48.794;9.520;2023-03-01T16:28:55;14.30;75.60
4505;DHT22;2265;48.794;9.520;2023-03-01T16:31:24;14.00;76.10
4505;DHT22;2265;48.794;9.520;2023-03-01T16:33:53;13.80;76.70
4505;DHT22;2265;48.794;9.520;2023-03-01T16:36:21;13.50;77.00
4505;DHT22;2265;48.794;9.520;2023-03-01T16:38:50;13.40;77.70
4505;DHT22;2265;48.794;9.520;2023-03-01T16:41:18;13.10;78.20
4505;DHT22;2265;48.794;9.520;2023-03-01T16:43:46;12.80;78.90
4505;DHT22;2265;48.794;9.520;2023-03-01T16:46:14;12.60;79.30
4505;DHT22;2265;48.794;9.520;2023-03-01T16:48:43;12.30;79.80
4505;DHT22;2265;48.794;9.520;2023-03-01T16:51:11;11.70;81.30
4505;DHT22;2265;48.794;9.520;2023-03-01T16:53:38;11.30;82.20
4505;DHT22;2265;48.794;9.520;2023-03-01T16:56:08;10.90;83.60